Tiempo atmosférico en la estación meteorológica de San José del Valle, Cádiz (105 m.)



Fecha
DESCASC
Temp. máxima en grados centígrados (hora)
DESCASC
Temp. mínima en grados centígrados (hora)
DESCASC
Temp. media en grados centígrados
DESCASC
Racha de viento máxima en m/sg (hora)
DESCASC
Velocidad máxima media en intervalos de 10 minutos(hora)
DESCASC
Precipitaciones diarias en mm
DESCASC
Precipitaciones de 00:00 a 06:00 en mm
DESCASC
Precipitaciones de 06:00 a 12:00 en mm
DESCASC
Precipitaciones de 12:00 a 18:00 en mm
DESCASC
Precipitaciones de 18:00 a 24:00 en mm
DESCASC
31-05-2020 25.9 (11:40) 16.7 (14:30) 21.3 11.11 (16:10) 6.39 (15:10) 6.4 0 0 6.4 0
30-05-2020 26.6 (16:00) 20.2 (07:30) 23.4 12.78 (10:20) 6.67 (10:20) 0 0 0 0 0
29-05-2020 28 (15:50) 19.2 (05:30) 23.6 15 (01:30) 10.56 (01:30) 0 0 0 0 0
28-05-2020 25.4 (15:30) 20.5 (00:00) 22.9 19.17 (12:20) 11.11 (10:00) 0 0 0 0 0
27-05-2020 25.7 (15:20) 20.6 (00:00) 23.2 17.78 (15:20) 11.39 (08:30) 0 0 0 0 0
26-05-2020 25.9 (15:20) 21.5 (00:00) 23.7 13.61 (18:00) 9.17 (13:40) 0 0 0 0 0
25-05-2020 26.7 (14:40) 19.7 (00:00) 23.2 17.22 (21:20) 10.28 (21:10) 0 0 0 0 0
24-05-2020 28 (18:40) 20.8 (00:00) 24.4 16.11 (13:20) 9.72 (13:10) 0 0 0 0 0
23-05-2020 33.7 (14:40) 18.6 (00:00) 26.2 5 (15:30) 4.17 (15:30) 0 0 0 0 0
22-05-2020 35.1 (17:40) 16.8 (00:00) 25.9 6.39 (18:30) 4.17 (19:00) 0 0 0 0 0
21-05-2020 32.3 (16:00) 16.1 (00:00) 24.2 5.28 (18:50) 2.78 (19:10) 0 0 0 0 0
20-05-2020 31.5 (18:20) 15.8 (00:00) 23.7 5.83 (16:10) 3.33 (21:50) 0 0 0 0 0
19-05-2020 32.1 (16:40) 14.9 (00:00) 23.5 7.22 (19:00) 3.33 (19:00) 0 0 0 0 0
18-05-2020 29.1 (18:20) 13 (00:00) 21.1 6.11 (15:50) 2.78 (18:10) 0 0 0 0 0
17-05-2020 24.7 (16:50) 11.5 (00:00) 18.1 10 (18:10) 6.39 (18:00) 0.8 0 0 0 0.8
16-05-2020 22.1 (13:50) 13.7 (00:00) 17.9 8.61 (16:10) 2.78 (20:30) 18.6 0 0 18.6 0
15-05-2020 19.1 (16:20) 14 (00:00) 16.6 8.06 (02:10) 5.28 (11:00) 0.6 0 0 0.6 0
14-05-2020 19.1 (15:40) 11.3 (00:00) 15.2 22.22 (13:00) 8.33 (14:30) 33.4 2.8 11.2 18.4 1
13-05-2020 22.1 (16:40) 12.4 (00:00) 17.3 11.39 (15:30) 6.39 (15:50) 8 0 0 0.6 7.4
12-05-2020 19.7 (16:50) 12.8 (00:00) 16.3 11.11 (15:10) 6.67 (15:10) 6.4 0 1.4 5 0
11-05-2020 21 (12:10) 13.8 (00:00) 17.4 11.11 (11:20) 5.28 (12:10) 2.2 0 0 2.2 0
10-05-2020 20.8 (14:50) 12.9 (00:00) 16.8 12.22 (15:00) 5.56 (15:30) 3.2 1.4 1.6 0.2 0
09-05-2020 22.7 (15:30) 14 (00:00) 18.4 8.89 (18:20) 4.17 (15:40) 2 0 0 0 2
08-05-2020 26.8 (14:50) 17.4 (00:00) 22.1 16.67 (01:30) 11.39 (02:00) 0 0 0 0 0
07-05-2020 26.2 (17:20) 19 (00:00) 22.6 16.11 (13:00) 11.11 (13:30) 0 0 0 0 0
06-05-2020 30.8 (17:20) 12.7 (00:00) 21.7 8.61 (14:40) 4.17 (14:00) 0 0 0 0 0
05-05-2020 27.2 (17:30) 13.9 (00:00) 20.6 6.11 (16:00) 3.06 (18:10) 0 0 0 0 0
04-05-2020 29.1 (11:20) 17 (00:00) 23.1 12.5 (12:20) 7.78 (12:20) 0 0 0 0 0
03-05-2020 32 (15:00) 15.9 (00:00) 23.9 6.67 (12:10) 3.61 (12:10) 0 0 0 0 0

Gráficas

Temp. máximas Temp. mínimas Temp. medias Precipitaciones Rachas de viento máximas Velocidades máximas media en intervalos de 10 minutos

Datos horarios

Fecha y hora oficial Temperatura (ºC) Velocidad del viento (km/h) Dirección del viento Racha (km/h) Dirección de racha Precipitación (mm) Presión (hPa) Tendencia (hPa) Humedad (%)
2020-06-01 23:00:00 19.7 5 Oeste 12 Oeste 0 -- -- 71
2020-06-01 22:00:00 20.8 7 Oeste 15 Oeste 0 -- -- 61
2020-06-01 21:00:00 22.7 8 Sudoeste 21 Oeste 0 -- -- 56
2020-06-01 20:00:00 25.6 10 Oeste 21 Oeste 0 -- -- 47
2020-06-01 19:00:00 27.6 9 Sudoeste 23 Sur 0 -- -- 43
2020-06-01 18:00:00 28.5 11 Sudoeste 28 Sur 0 -- -- 37
2020-06-01 17:00:00 28.4 12 Sur 26 Sur 0 -- -- 42
2020-06-01 16:00:00 27.2 10 Sudoeste 28 Sudoeste 0 -- -- 44
2020-06-01 15:00:00 27.7 12 Sur 30 Sur 0 -- -- 40
2020-06-01 14:00:00 27.8 14 Sur 30 Sur 0 -- -- 38
2020-06-01 13:00:00 26.3 17 Sur 38 Sur 0 -- -- 41
2020-06-01 12:00:00 25.9 20 Sur 34 Sur 0 -- -- 42
2020-06-01 11:00:00 24.4 12 Sur 28 Sur 0 -- -- 56
2020-06-01 10:00:00 22.4 14 Sur 26 Sur 0 -- -- 63
2020-06-01 09:00:00 19.6 9 Sur 18 Sur 0 -- -- 72
2020-06-01 08:00:00 17 6 Sur 10 Sur 0 -- -- 84
2020-06-01 07:00:00 16.6 4 Sudoeste 8 Sudoeste 0 -- -- 82
2020-06-01 06:00:00 16.6 0 Calma 4 Este 0 -- -- 82
2020-06-01 05:00:00 17.3 0 Calma 13 Sur 0 -- -- 79
2020-06-01 04:00:00 16.6 3 Sudoeste 13 Este 0 -- -- 76
2020-06-01 03:00:00 17.5 8 Sur 14 Sur 0 -- -- 72
2020-06-01 02:00:00 18 6 Oeste 17 Oeste 0 -- -- 72
2020-06-01 01:00:00 17.2 0 Calma 9 Sudeste 0 -- -- 76
2020-06-01 00:00:00 18.7 2 Este 15 Nordeste 0 -- -- 71
2020-05-31 23:00:00 18.7 4 Nordeste 13 Este 0 -- -- 74
2020-05-31 22:00:00 19.7 4 Noroeste 10 Norte 0 -- -- 68
2020-05-31 21:00:00 20.7 2 Noroeste 8 Nordeste 0 -- -- 69
2020-05-31 20:00:00 22.4 3 Este 20 Sudeste 0 -- -- 59
2020-05-31 19:00:00 22.1 3 Este 19 Sudeste 0 -- -- 64
2020-05-31 18:00:00 21.7 13 Sur 28 Sur 0 -- -- 63
2020-05-31 17:00:00 19.7 12 Sudoeste 40 Oeste 0 -- -- 72
2020-05-31 16:00:00 17.6 9 Nordeste 30 Sudeste 0.2 -- -- 81
2020-05-31 15:00:00 17.3 13 Sur 23 Sudeste 1.6 -- -- 90
2020-05-31 14:00:00 17.4 10 Sur 33 Sur 4.6 -- -- 75
2020-05-31 13:00:00 23.2 15 Sur 31 Sur 0 -- -- 34
2020-05-31 12:00:00 25.3 5 Este 26 Sudeste 0 -- -- 32
2020-05-31 11:00:00 25.5 8 Sudeste 16 Este 0 -- -- 27
2020-05-31 10:00:00 24.2 6 Este 12 Este 0 -- -- 30
2020-05-31 09:00:00 21.7 6 Oeste 18 Este 0 -- -- 25
2020-05-31 08:00:00 21 8 Este 17 Este 0 -- -- 30
2020-05-31 07:00:00 20.9 5 Nordeste 15 Este 0 -- -- 28
2020-05-31 06:00:00 21.1 4 Noroeste 19 Sur 0 -- -- 29
2020-05-31 05:00:00 22.7 10 Este 24 Sudeste 0 -- -- 20
2020-05-31 04:00:00 23 9 Este 25 Este 0 -- -- 20
2020-05-31 03:00:00 22.8 11 Este 25 Nordeste 0 -- -- 25
2020-05-31 02:00:00 22.6 12 Este 35 Sudeste 0 -- -- 24
2020-05-31 01:00:00 22.6 14 Sudeste 24 Sudeste 0 -- -- 28
2020-05-31 00:00:00 22.3 8 Este 28 Sudeste 0 -- -- 32
2020-05-30 23:00:00 22.2 10 Este 21 Este 0 -- -- 37
2020-05-30 22:00:00 23.2 14 Este 43 Sudeste 0 -- -- 35
2020-05-30 21:00:00 23.8 13 Este 35 Sudeste 0 -- -- 38
2020-05-30 20:00:00 25 11 Este 33 Sudeste 0 -- -- 37
2020-05-30 19:00:00 25.3 13 Este 26 Este 0 -- -- 37
2020-05-30 18:00:00 25.7 11 Este 24 Este 0 -- -- 35
2020-05-30 17:00:00 26.1 13 Este 33 Sudeste 0 -- -- 35
2020-05-30 16:00:00 26.6 15 Este 26 Este 0 -- -- 36
2020-05-30 15:00:00 26.2 12 Este 34 Este 0 -- -- 36
2020-05-30 14:00:00 25.7 13 Este 35 Este 0 -- -- 34
2020-05-30 13:00:00 25.3 13 Este 27 Nordeste 0 -- -- 36
2020-05-30 12:00:00 24.7 15 Este 31 Sudeste 0 -- -- 37
2020-05-30 11:00:00 24.5 17 Sudeste 46 Sudeste 0 -- -- 32
2020-05-30 10:00:00 23.9 18 Este 37 Sudeste 0 -- -- 31
2020-05-30 09:00:00 22.6 5 Este 14 Nordeste 0 -- -- 32
2020-05-30 08:00:00 20.6 5 Nordeste 18 Este 0 -- -- 36
2020-05-30 07:00:00 21.1 6 Este 14 Nordeste 0 -- -- 31
2020-05-30 06:00:00 21.5 5 Este 17 Nordeste 0 -- -- 33
2020-05-30 05:00:00 22.2 8 Este 21 Nordeste 0 -- -- 37
2020-05-30 04:00:00 21.3 6 Este 17 Nordeste 0 -- -- 38
2020-05-30 03:00:00 21.8 5 Este 19 Este 0 -- -- 37
2020-05-30 02:00:00 21.1 5 Este 15 Este 0 -- -- 41
2020-05-30 01:00:00 21.2 6 Este 14 Nordeste 0 -- -- 45
2020-05-30 00:00:00 20.8 5 Este 15 Este 0 -- -- 51
2020-05-29 23:00:00 21.2 3 Nordeste 14 Este 0 -- -- 54
2020-05-29 22:00:00 22.4 3 Norte 10 Este 0 -- -- 47
2020-05-29 21:00:00 24.4 2 Nordeste 13 Nordeste 0 -- -- 47
2020-05-29 20:00:00 26.1 6 Este 14 Este 0 -- -- 43
2020-05-29 19:00:00 26.6 3 Este 10 Este 0 -- -- 41
2020-05-29 18:00:00 27.1 3 Este 17 Este 0 -- -- 40
2020-05-29 17:00:00 27.4 8 Sudeste 16 Sudeste 0 -- -- 38
2020-05-29 16:00:00 27.7 8 Sudeste 13 Este 0 -- -- 38
2020-05-29 15:00:00 26.8 6 Este 16 Sudeste 0 -- -- 37
2020-05-29 14:00:00 26.1 6 Este 19 Sudeste 0 -- -- 38
2020-05-29 13:00:00 25.3 10 Este 30 Sudeste 0 -- -- 40
2020-05-29 12:00:00 24.5 15 Este 31 Sudeste 0 -- -- 41
2020-05-29 11:00:00 23.7 8 Este 22 Sudeste 0 -- -- 43
2020-05-29 10:00:00 22.9 11 Este 30 Sudeste 0 -- -- 41
2020-05-29 09:00:00 21.9 11 Este 26 Sudeste 0 -- -- 46
2020-05-29 08:00:00 20.8 8 Este 20 Este 0 -- -- 49
2020-05-29 07:00:00 20.8 9 Este 25 Este 0 -- -- 50
2020-05-29 06:00:00 20.1 9 Nordeste 23 Este 0 -- -- 55
2020-05-29 05:00:00 19.8 10 Este 38 Sudeste 0 -- -- 60
2020-05-29 04:00:00 21.3 19 Sudeste 39 Sudeste 0 -- -- 52
2020-05-29 03:00:00 21.1 13 Este 33 Este 0 -- -- 55
2020-05-29 02:00:00 21.1 14 Este 54 Sudeste 0 -- -- 52
2020-05-29 01:00:00 21.3 20 Sudeste 33 Sudeste 0 -- -- 53
2020-05-29 00:00:00 21.2 15 Este 36 Sudeste 0 -- -- 52
2020-05-28 23:00:00 21.4 14 Sudeste 42 Sudeste 0 -- -- 50
2020-05-28 22:00:00 21.7 25 Sudeste 51 Sudeste 0 -- -- 53
2020-05-28 21:00:00 22.5 27 Sudeste 44 Sudeste 0 -- -- 50
2020-05-28 20:00:00 23.5 9 Este 30 Este 0 -- -- 47
2020-05-28 19:00:00 24.4 14 Este 40 Sudeste 0 -- -- 46
2020-05-28 18:00:00 24.9 18 Este 47 Sudeste 0 -- -- 41
2020-05-28 17:00:00 25.2 19 Este 50 Este 0 -- -- 40
2020-05-28 16:00:00 25.2 22 Este 48 Este 0 -- -- 39
2020-05-28 15:00:00 25.1 31 Sudeste 54 Este 0 -- -- 39
2020-05-28 14:00:00 24.8 22 Este 63 Este 0 -- -- 41
2020-05-28 13:00:00 24.3 32 Sudeste 69 Sudeste 0 -- -- 42
2020-05-28 12:00:00 23.7 30 Este 55 Sudeste 0 -- -- 44
2020-05-28 11:00:00 23.1 22 Este 61 Sudeste 0 -- -- 46
2020-05-28 10:00:00 22.1 40 Sudeste 59 Sudeste 0 -- -- 49
2020-05-28 09:00:00 21.6 23 Este 56 Sudeste 0 -- -- 55
2020-05-28 08:00:00 21.8 26 Sudeste 45 Sudeste 0 -- -- 51
2020-05-28 07:00:00 20.6 15 Este 35 Sudeste 0 -- -- 59
2020-05-28 06:00:00 20.7 14 Este 33 Sudeste 0 -- -- 56
2020-05-28 05:00:00 21.6 14 Este 36 Sudeste 0 -- -- 45
2020-05-28 04:00:00 21.8 13 Este 39 Sudeste 0 -- -- 43
2020-05-28 03:00:00 22 13 Este 33 Sudeste 0 -- -- 40
2020-05-28 02:00:00 22.6 18 Este 40 Sudeste 0 -- -- 38
2020-05-28 01:00:00 22.9 13 Este 43 Este 0 -- -- 39
2020-05-28 00:00:00 22.5 24 Sudeste 52 Sudeste 0 -- -- 40
2020-05-27 23:00:00 22.4 25 Sudeste 58 Sudeste 0 -- -- 42
2020-05-27 22:00:00 22.8 32 Sudeste 57 Sudeste 0 -- -- 45
2020-05-27 21:00:00 22.9 26 Sudeste 54 Sudeste 0 -- -- 45
2020-05-27 20:00:00 23.8 35 Sudeste 56 Sudeste 0 -- -- 40
2020-05-27 19:00:00 24.9 24 Sudeste 51 Este 0 -- -- 35
2020-05-27 18:00:00 25.3 30 Sudeste 53 Sudeste 0 -- -- 37
2020-05-27 17:00:00 25.4 34 Sudeste 58 Sudeste 0 -- -- 39
2020-05-27 16:00:00 25.6 35 Sudeste 64 Sudeste 0 -- -- 37
2020-05-27 15:00:00 25.3 32 Sudeste 64 Sudeste 0 -- -- 41
2020-05-27 14:00:00 25 32 Sudeste 52 Sudeste 0 -- -- 45
2020-05-27 13:00:00 24.4 24 Sudeste 46 Sudeste 0 -- -- 47
2020-05-27 12:00:00 24 24 Sudeste 49 Este 0 -- -- 50
2020-05-27 11:00:00 23.4 17 Este 42 Sudeste 0 -- -- 50
2020-05-27 10:00:00 22.6 23 Sudeste 54 Sudeste 0 -- -- 51
2020-05-27 09:00:00 22 34 Sudeste 56 Sudeste 0 -- -- 52
2020-05-27 08:00:00 21.5 30 Sudeste 45 Sudeste 0 -- -- 51
2020-05-27 07:00:00 20.7 12 Este 37 Este 0 -- -- 51
2020-05-27 06:00:00 20.8 12 Este 24 Este 0 -- -- 56
2020-05-27 05:00:00 20.8 10 Este 25 Este 0 -- -- 52
2020-05-27 04:00:00 21.4 13 Este 29 Sudeste 0 -- -- 50
2020-05-27 03:00:00 21.8 14 Este 34 Este 0 -- -- 46
2020-05-27 02:00:00 21.5 10 Este 29 Este 0 -- -- 52
2020-05-27 01:00:00 21.9 13 Este 32 Este 0 -- -- 48
2020-05-27 00:00:00 22.6 14 Este 49 Sudeste 0 -- -- 42
2020-05-26 23:00:00 23.3 27 Sudeste 49 Sudeste 0 -- -- 41
2020-05-26 22:00:00 22.9 13 Este 30 Sudeste 0 -- -- 43
2020-05-26 21:00:00 23 14 Este 37 Sudeste 0 -- -- 45
2020-05-26 20:00:00 23.6 18 Este 39 Sudeste 0 -- -- 45
2020-05-26 19:00:00 24.7 25 Este 48 Sudeste 0 -- -- 41
2020-05-26 18:00:00 25.3 20 Este 49 Sudeste 0 -- -- 37
2020-05-26 17:00:00 25.7 20 Este 40 Sudeste 0 -- -- 39
2020-05-26 16:00:00 25.7 24 Este 43 Sudeste 0 -- -- 39
2020-05-26 15:00:00 25.8 18 Este 39 Sudeste 0 -- -- 39
2020-05-26 14:00:00 25.6 15 Este 49 Este 0 -- -- 37
2020-05-26 13:00:00 25.1 27 Sudeste 45 Sudeste 0 -- -- 35
2020-05-26 12:00:00 24.8 16 Este 44 Este 0 -- -- 38
2020-05-26 11:00:00 24.1 17 Este 42 Sudeste 0 -- -- 34
2020-05-26 10:00:00 23.2 14 Este 32 Sudeste 0 -- -- 37
2020-05-26 09:00:00 22.5 14 Este 35 Sudeste 0 -- -- 36
2020-05-26 08:00:00 21.8 12 Este 32 Sudeste 0 -- -- 36
2020-05-26 07:00:00 21.5 12 Este 29 Este 0 -- -- 36
2020-05-26 06:00:00 21.9 13 Este 40 Este 0 -- -- 33
2020-05-26 05:00:00 22.1 11 Este 29 Este 0 -- -- 35
2020-05-26 04:00:00 22.4 12 Este 28 Sudeste 0 -- -- 37
2020-05-26 03:00:00 22.3 14 Este 31 Este 0 -- -- 39
2020-05-26 02:00:00 22 15 Este 30 Este 0 -- -- 39
2020-05-26 01:00:00 22.1 14 Este 36 Este 0 -- -- 43
2020-05-26 00:00:00 22.4 15 Este 28 Este 0 -- -- 43
2020-05-25 23:00:00 22.3 15 Este 41 Sudeste 0 -- -- 48
2020-05-25 22:00:00 22.3 19 Este 62 Sudeste 0 -- -- 55
2020-05-25 21:00:00 22.8 32 Sudeste 49 Sudeste 0 -- -- 54
2020-05-25 20:00:00 23.7 16 Este 39 Este 0 -- -- 47
2020-05-25 19:00:00 25.2 10 Este 24 Norte 0 -- -- 46
2020-05-25 18:00:00 25.5 9 Este 22 Este 0 -- -- 46
2020-05-25 17:00:00 25.7 9 Este 25 Este 0 -- -- 48
2020-05-25 16:00:00 25.7 9 Este 22 Nordeste 0 -- -- 47
2020-05-25 15:00:00 26.2 8 Este 22 Este 0 -- -- 44
2020-05-25 14:00:00 25.9 9 Este 43 Sudeste 0 -- -- 45
2020-05-25 13:00:00 25 15 Este 34 Sudeste 0 -- -- 46
2020-05-25 12:00:00 24.4 12 Este 23 Nordeste 0 -- -- 45
2020-05-25 11:00:00 23.6 14 Este 29 Sudeste 0 -- -- 46
2020-05-25 10:00:00 22.8 13 Sudeste 28 Sudeste 0 -- -- 46
2020-05-25 09:00:00 21.2 9 Este 21 Sudeste 0 -- -- 48
2020-05-25 08:00:00 19.9 5 Nordeste 24 Este 0 -- -- 50
2020-05-25 07:00:00 20.1 8 Este 21 Sudeste 0 -- -- 48
2020-05-25 06:00:00 21.3 9 Este 24 Este 0 -- -- 46
2020-05-25 05:00:00 21.6 9 Este 32 Sudeste 0 -- -- 44
2020-05-25 04:00:00 21.7 10 Este 36 Sudeste 0 -- -- 48
2020-05-25 03:00:00 22.2 12 Este 35 Sudeste 0 -- -- 46
2020-05-25 02:00:00 23.4 22 Sudeste 49 Sudeste 0 -- -- 36
2020-05-25 01:00:00 23.9 21 Sudeste 44 Sudeste 0 -- -- 33
2020-05-25 00:00:00 23.5 12 Este 37 Este 0 -- -- 34
2020-05-24 23:00:00 23.4 10 Este 45 Sudeste 0 -- -- 37
2020-05-24 22:00:00 23.7 18 Sudeste 45 Sudeste 0 -- -- 39
2020-05-24 21:00:00 24.2 13 Este 31 Sudeste 0 -- -- 37
2020-05-24 20:00:00 25 13 Este 30 Sudeste 0 -- -- 34
2020-05-24 19:00:00 27 10 Este 46 Sudeste 0 -- -- 36
2020-05-24 18:00:00 26.8 12 Este 36 Sudeste 0 -- -- 37
2020-05-24 17:00:00 26.8 24 Sudeste 48 Sudeste 0 -- -- 39
2020-05-24 16:00:00 26.4 28 Sudeste 42 Sudeste 0 -- -- 39
2020-05-24 15:00:00 26.6 23 Sudeste 45 Sudeste 0 -- -- 39
2020-05-24 14:00:00 26.8 30 Sudeste 58 Sudeste 0 -- -- 37
2020-05-24 13:00:00 27 33 Sudeste 44 Sudeste 0 -- -- 35
2020-05-24 12:00:00 26.8 25 Sudeste 42 Sudeste 0 -- -- 30
2020-05-24 11:00:00 26.4 24 Sudeste 40 Sudeste 0 -- -- 34
2020-05-24 10:00:00 25.8 22 Sudeste 35 Sudeste 0 -- -- 33
2020-05-24 09:00:00 24.6 9 Este 17 Nordeste 0 -- -- 36
2020-05-24 08:00:00 22.9 5 Este 14 Este 0 -- -- 41
2020-05-24 07:00:00 21.3 3 Nordeste 11 Nordeste 0 -- -- 40
2020-05-24 06:00:00 21 0 Calma 5 Sudeste 0 -- -- 44
2020-05-24 05:00:00 21.6 0 Calma 7 Nordeste 0 -- -- 43
2020-05-24 04:00:00 22.4 2 Noroeste 8 Este 0 -- -- 37
2020-05-24 03:00:00 23 3 Oeste 8 Sudoeste 0 -- -- 38
2020-05-24 02:00:00 22.9 2 Oeste 9 Nordeste 0 -- -- 39
2020-05-24 01:00:00 23.4 0 Calma 8 Este 0 -- -- 40
2020-05-24 00:00:00 23.4 2 Norte 9 Nordeste 0 -- -- 41
2020-05-23 23:00:00 24.3 2 Oeste 11 Sudeste 0 -- -- 40
2020-05-23 22:00:00 25.9 2 Oeste 9 Norte 0 -- -- 37
2020-05-23 21:00:00 27.9 4 Norte 7 Norte 0 -- -- 34
2020-05-23 20:00:00 30.5 3 Sudoeste 8 Nordeste 0 -- -- 34
2020-05-23 19:00:00 31.3 3 Este 17 Sudeste 0 -- -- 31
2020-05-23 18:00:00 32.5 10 Sudeste 18 Sudeste 0 -- -- 27
2020-05-23 17:00:00 31.5 7 Sudeste 16 Sudeste 0 -- -- 35
2020-05-23 16:00:00 32.2 4 Sudeste 18 Sudeste 0 -- -- 34
2020-05-23 15:00:00 33.6 5 Sudeste 8 Sudeste 0 -- -- 25
2020-05-23 14:00:00 33 5 Sur 8 Sudeste 0 -- -- 23
2020-05-23 13:00:00 31.9 4 Sudeste 8 Sudeste 0 -- -- 32
2020-05-23 12:00:00 30.2 4 Sudeste 9 Nordeste 0 -- -- 29
2020-05-23 11:00:00 26.7 7 Noroeste 13 Noroeste 0 -- -- 43
2020-05-23 10:00:00 24.2 0 Calma 6 Sur 0 -- -- 43
2020-05-23 09:00:00 20.7 3 Sur 6 Sudeste 0 -- -- 56
2020-05-23 08:00:00 19.1 2 Sudeste 8 Norte 0 -- -- 66
2020-05-23 07:00:00 18.7 4 Norte 8 Norte 0 -- -- 64
2020-05-23 06:00:00 18.7 0 Calma 5 Sudeste 0 -- -- 65
2020-05-23 05:00:00 18.9 0 Calma 3 Este 0 -- -- 66
2020-05-23 04:00:00 18.8 0 Calma 6 Sudeste 0 -- -- 70
2020-05-23 03:00:00 19.7 0 Calma 5 Oeste 0 -- -- 68
2020-05-23 02:00:00 20.2 0 Calma 4 Sudeste 0 -- -- 62
2020-05-23 01:00:00 21 0 Calma 4 Sudoeste 0 -- -- 66
2020-05-23 00:00:00 22.4 2 Sudoeste 6 Oeste 0 -- -- 61
2020-05-22 23:00:00 24 2 Sudoeste 6 Norte 0 -- -- 46
2020-05-22 22:00:00 26.1 0 Calma 10 Oeste 0 -- -- 41
2020-05-22 21:00:00 27.9 5 Sudoeste 14 Sudoeste 0 -- -- 34
2020-05-22 20:00:00 31.6 7 Sudoeste 22 Sudoeste 0 -- -- 28
2020-05-22 19:00:00 33.4 15 Sur 23 Sur 0 -- -- 28
2020-05-22 18:00:00 34.9 5 Sudeste 9 Sudeste 0 -- -- 21
2020-05-22 17:00:00 34.9 3 Sudeste 6 Sudeste 0 -- -- 16
2020-05-22 16:00:00 34.7 5 Sur 8 Sudeste 0 -- -- 16
2020-05-22 15:00:00 34.8 6 Sudeste 9 Sudeste 0 -- -- 15
2020-05-22 14:00:00 33.8 5 Este 9 Sudeste 0 -- -- 17
2020-05-22 13:00:00 31.9 6 Sudeste 10 Sudeste 0 -- -- 28
2020-05-22 12:00:00 29.1 4 Sur 5 Sur 0 -- -- 28
2020-05-22 11:00:00 25.7 2 Sur 7 Sudeste 0 -- -- 53
2020-05-22 10:00:00 22.2 4 Sur 6 Sur 0 -- -- 61
2020-05-22 09:00:00 18.9 3 Sur 7 Sudeste 0 -- -- 72
2020-05-22 08:00:00 17.3 2 Sudeste 5 Este 0 -- -- 85
2020-05-22 07:00:00 16.9 0 Calma 8 Este 0 -- -- 87
2020-05-22 06:00:00 16.9 4 Sur 6 Sudeste 0 -- -- 92
2020-05-22 05:00:00 17.4 0 Calma 5 Sudeste 0 -- -- 92
2020-05-22 04:00:00 17.8 0 Calma 5 Sudeste 0 -- -- 91
2020-05-22 03:00:00 18.3 0 Calma 3 Oeste 0 -- -- 91
2020-05-22 02:00:00 19 0 Calma 5 Sur 0 -- -- 91
2020-05-22 01:00:00 19.6 0 Calma 5 Sudeste 0 -- -- 90
2020-05-22 00:00:00 20.7 0 Calma 5 Este 0 -- -- 87
2020-05-21 23:00:00 21.8 0 Calma 9 Oeste 0 -- -- 65
2020-05-21 22:00:00 23.7 6 Oeste 14 Oeste 0 -- -- 56
2020-05-21 21:00:00 25.5 6 Oeste 15 Oeste 0 -- -- 54
2020-05-21 20:00:00 27.7 8 Oeste 19 Oeste 0 -- -- 52
2020-05-21 19:00:00 29.5 10 Oeste 19 Sudoeste 0 -- -- 45
2020-05-21 18:00:00 31.8 7 Oeste 18 Sudoeste 0 -- -- 36
2020-05-21 17:00:00 32.3 6 Sudoeste 17 Sudoeste 0 -- -- 36
2020-05-21 16:00:00 32.3 6 Oeste 18 Sudoeste 0 -- -- 36
2020-05-21 15:00:00 31.6 5 Oeste 19 Sudeste 0 -- -- 39
2020-05-21 14:00:00 30.4 6 Sudoeste 17 Sudoeste 0 -- -- 36
2020-05-21 13:00:00 29 8 Sudoeste 14 Oeste 0 -- -- 37
2020-05-21 12:00:00 26.9 4 Este 6 Este 0 -- -- 56
2020-05-21 11:00:00 23.2 4 Sudeste 6 Sudeste 0 -- -- 68
2020-05-21 10:00:00 20.6 3 Sudeste 6 Sudeste 0 -- -- 75
2020-05-21 09:00:00 18.1 2 Sudeste 5 Sudeste 0 -- -- 86
2020-05-21 08:00:00 16.7 3 Sudeste 4 Sudeste 0 -- -- 92
2020-05-21 07:00:00 16.3 0 Calma 5 Sur 0 -- -- 91
2020-05-21 06:00:00 16.3 0 Calma 4 Sur 0 -- -- 93
2020-05-21 05:00:00 16.7 2 Sudeste 5 Sudeste 0 -- -- 92
2020-05-21 04:00:00 17.2 0 Calma 4 Sur 0 -- -- 93
2020-05-21 03:00:00 17.5 0 Calma 4 Sur 0 -- -- 91
2020-05-21 02:00:00 18.1 0 Calma 4 Sur 0 -- -- 89
2020-05-21 01:00:00 18.8 3 Sudoeste 5 Norte 0 -- -- 86
2020-05-21 00:00:00 19.8 3 Norte 5 Norte 0 -- -- 76
2020-05-20 23:00:00 21.3 5 Oeste 14 Oeste 0 -- -- 64
2020-05-20 22:00:00 24 8 Oeste 19 Oeste 0 -- -- 56
2020-05-20 21:00:00 26.4 7 Oeste 13 Noroeste 0 -- -- 45
2020-05-20 20:00:00 30.1 3 Oeste 10 Norte 0 -- -- 34
2020-05-20 19:00:00 31.2 4 Norte 18 Norte 0 -- -- 29
2020-05-20 18:00:00 31.3 5 Noroeste 18 Sudoeste 0 -- -- 26
2020-05-20 17:00:00 31.2 6 Noroeste 21 Sudoeste 0 -- -- 30
2020-05-20 16:00:00 31.1 9 Oeste 21 Sudoeste 0 -- -- 32
2020-05-20 15:00:00 31 7 Sudoeste 16 Sudoeste 0 -- -- 29
2020-05-20 14:00:00 30.2 6 Noroeste 20 Oeste 0 -- -- 33
2020-05-20 13:00:00 29.7 5 Sudoeste 13 Sur 0 -- -- 35
2020-05-20 12:00:00 27.9 4 Sudoeste 11 Sur 0 -- -- 34
2020-05-20 11:00:00 23.3 4 Sudeste 8 Sur 0 -- -- 49
2020-05-20 10:00:00 19.7 4 Sur 6 Sudeste 0 -- -- 71
2020-05-20 09:00:00 18.2 5 Sudeste 6 Sudeste 0 -- -- 76
2020-05-20 08:00:00 16.6 0 Calma 7 Sudoeste 0 -- -- 81
2020-05-20 07:00:00 15.8 0 Calma 6 Sudeste 0 -- -- 85
2020-05-20 06:00:00 16.2 0 Calma 6 Sudeste 0 -- -- 84
2020-05-20 05:00:00 16.4 2 Sur 6 Sudeste 0 -- -- 85
2020-05-20 04:00:00 16.7 2 Sur 4 Sur 0 -- -- 84
2020-05-20 03:00:00 17.2 0 Calma 6 Este 0 -- -- 82
2020-05-20 02:00:00 18 0 Calma 4 Sudeste 0 -- -- 80
2020-05-20 01:00:00 18.6 0 Calma 3 Sudoeste 0 -- -- 80
2020-05-20 00:00:00 19.7 0 Calma 5 Nordeste 0 -- -- 71
2020-05-19 23:00:00 21.1 2 Norte 6 Norte 0 -- -- 64
2020-05-19 22:00:00 22.7 3 Oeste 14 Oeste 0 -- -- 49
2020-05-19 21:00:00 24.4 7 Sudoeste 18 Sudoeste 0 -- -- 46
2020-05-19 20:00:00 26.4 9 Oeste 22 Sudoeste 0 -- -- 44
2020-05-19 19:00:00 29.6 12 Sudoeste 26 Oeste 0 -- -- 34
2020-05-19 18:00:00 31.5 5 Sur 16 Sur 0 -- -- 24
2020-05-19 17:00:00 31.8 4 Este 8 Noroeste 0 -- -- 27
2020-05-19 16:00:00 31.5 4 Este 10 Sudeste 0 -- -- 26
2020-05-19 15:00:00 30.9 4 Este 8 Este 0 -- -- 28
2020-05-19 14:00:00 29.7 4 Sudeste 7 Este 0 -- -- 27
2020-05-19 13:00:00 28.6 4 Sudeste 6 Este 0 -- -- 29
2020-05-19 12:00:00 25.5 4 Sudeste 6 Sudeste 0 -- -- 53
2020-05-19 11:00:00 22.8 3 Sur 7 Sur 0 -- -- 63
2020-05-19 10:00:00 19.8 4 Sur 7 Sur 0 -- -- 73
2020-05-19 09:00:00 17.1 3 Sur 7 Sudeste 0 -- -- 82
2020-05-19 08:00:00 15.3 2 Sudeste 6 Sudeste 0 -- -- 91
2020-05-19 07:00:00 15.2 5 Sudeste 8 Sudeste 0 -- -- 91
2020-05-19 06:00:00 15 0 Calma 6 Sudeste 0 -- -- 91
2020-05-19 05:00:00 15.5 0 Calma 6 Sur 0 -- -- 91
2020-05-19 04:00:00 15.8 0 Calma 4 Este 0 -- -- 89
2020-05-19 03:00:00 16.4 0 Calma 5 Este 0 -- -- 88
2020-05-19 02:00:00 17.4 0 Calma 4 Sur 0 -- -- 89
2020-05-19 01:00:00 18.1 0 Calma 4 Norte 0 -- -- 79
2020-05-19 00:00:00 19.3 3 Norte 4 Norte 0 -- -- 79
2020-05-18 23:00:00 20.5 0 Calma 12 Sur 0 -- -- 65
2020-05-18 22:00:00 22.2 7 Sudoeste 14 Sudoeste 0 -- -- 61
2020-05-18 21:00:00 25 3 Sudoeste 12 Norte 0 -- -- 44
2020-05-18 20:00:00 27.7 6 Norte 19 Noroeste 0 -- -- 32
2020-05-18 19:00:00 28.7 8 Noroeste 22 Norte 0 -- -- 27
2020-05-18 18:00:00 28.8 8 Norte 20 Noroeste 0 -- -- 31
2020-05-18 17:00:00 28.8 7 Noroeste 19 Noroeste 0 -- -- 31
2020-05-18 16:00:00 28.4 5 Sudeste 22 Norte 0 -- -- 31
2020-05-18 15:00:00 27.4 3 Sudeste 13 Sudeste 0 -- -- 37
2020-05-18 14:00:00 26.2 8 Sudeste 10 Sudeste 0 -- -- 60
2020-05-18 13:00:00 24.7 6 Sudeste 10 Sudeste 0 -- -- 62
2020-05-18 12:00:00 23 7 Norte 15 Norte 0 -- -- 63
2020-05-18 11:00:00 20.9 8 Norte 14 Norte 0 -- -- 69
2020-05-18 10:00:00 18 4 Sudeste 9 Sudeste 0 -- -- 76
2020-05-18 09:00:00 14.9 4 Sudeste 9 Sudeste 0 -- -- 86
2020-05-18 08:00:00 13.7 2 Este 6 Sudeste 0 -- -- 91
2020-05-18 07:00:00 13.2 3 Sudeste 8 Sudeste 0 -- -- 92
2020-05-18 06:00:00 13 0 Calma 5 Oeste 0 -- -- 94
2020-05-18 05:00:00 13.3 0 Calma 6 Este 0 -- -- 93
2020-05-18 04:00:00 13.7 0 Calma 4 Nordeste 0 -- -- 94
2020-05-18 03:00:00 14.3 0 Calma 4 Norte 0 -- -- 94
2020-05-18 02:00:00 14.6 0 Calma 3 Nordeste 0 -- -- 91
2020-05-18 01:00:00 15.1 0 Calma 3 Oeste 0 -- -- 91
2020-05-18 00:00:00 15.7 0 Calma 4 Este 0 -- -- 89
2020-05-17 23:00:00 16.2 0 Calma 9 Sur 0 -- -- 87
2020-05-17 22:00:00 17.1 0 Calma 5 Sur 0 -- -- 84
2020-05-17 21:00:00 18 0 Calma 7 Sudeste 0 -- -- 80
2020-05-17 20:00:00 20 3 Este 20 Sur 0 -- -- 71
2020-05-17 19:00:00 19.1 11 Sur 36 Sur 0.8 -- -- 77
2020-05-17 18:00:00 20.8 23 Sudeste 34 Sudeste 0 -- -- 69
2020-05-17 17:00:00 24.4 6 Oeste 16 Sudoeste 0 -- -- 55
2020-05-17 16:00:00 23.9 7 Norte 18 Noroeste 0 -- -- 57
2020-05-17 15:00:00 23.7 7 Norte 19 Noroeste 0 -- -- 58
2020-05-17 14:00:00 23.8 5 Norte 16 Norte 0 -- -- 57
2020-05-17 13:00:00 22.9 5 Noroeste 12 Norte 0 -- -- 58
2020-05-17 12:00:00 21.1 4 Nordeste 8 Nordeste 0 -- -- 65
2020-05-17 11:00:00 19 6 Noroeste 10 Oeste 0 -- -- 76
2020-05-17 10:00:00 15.9 3 Sudeste 6 Este 0 -- -- 81
2020-05-17 09:00:00 13.3 3 Este 6 Nordeste 0 -- -- 94
2020-05-17 08:00:00 12.1 0 Calma 5 Nordeste 0 -- -- 98
2020-05-17 07:00:00 11.6 0 Calma 6 Nordeste 0 -- -- 97
2020-05-17 06:00:00 12 0 Calma 6 Sudeste 0 -- -- 97
2020-05-17 05:00:00 12.2 0 Calma 5 Sudeste 0 -- -- 97
2020-05-17 04:00:00 12.5 0 Calma 6 Este 0 -- -- 97
2020-05-17 03:00:00 12.8 0 Calma 5 Sudeste 0 -- -- 97
2020-05-17 02:00:00 13.2 0 Calma 5 Nordeste 0 -- -- 97
2020-05-17 01:00:00 13.7 0 Calma 6 Este 0 -- -- 97
2020-05-17 00:00:00 14 0 Calma 6 Norte 0 -- -- 96
2020-05-16 23:00:00 13.7 0 Calma 5 Sudoeste 0 -- -- 95
2020-05-16 22:00:00 14.4 0 Calma 10 Oeste 0 -- -- 93
2020-05-16 21:00:00 15.6 4 Oeste 15 Oeste 0 -- -- 89
2020-05-16 20:00:00 16.2 2 Norte 8 Nordeste 0 -- -- 91
2020-05-16 19:00:00 16.6 4 Este 14 Sudeste 0 -- -- 86
2020-05-16 18:00:00 14.9 6 Sur 17 Sur 3 -- -- 94
2020-05-16 17:00:00 14.7 6 Sur 31 Norte 13.4 -- -- 92
2020-05-16 16:00:00 18.5 6 Norte 22 Nordeste 2.2 -- -- 77
2020-05-16 15:00:00 21.4 4 Noroeste 18 Norte 0 -- -- 57
2020-05-16 14:00:00 22.1 6 Norte 20 Norte 0 -- -- 56
2020-05-16 13:00:00 21.1 6 Norte 17 Norte 0 -- -- 61
2020-05-16 12:00:00 19.9 6 Norte 13 Noroeste 0 -- -- 67
2020-05-16 11:00:00 17.1 4 Norte 8 Norte 0 -- -- 82
2020-05-16 10:00:00 16.1 2 Sudeste 5 Nordeste 0 -- -- 83
2020-05-16 09:00:00 14.8 0 Calma 4 Este 0 -- -- 89
2020-05-16 08:00:00 14 0 Calma 6 Este 0 -- -- 94
2020-05-16 07:00:00 13.9 0 Calma 3 Sudeste 0 -- -- 94
2020-05-16 06:00:00 14.3 0 Calma 6 Sudeste 0 -- -- 93
2020-05-16 05:00:00 14.4 0 Calma 6 Nordeste 0 -- -- 94
2020-05-16 04:00:00 14.9 3 Este 8 Este 0 -- -- 94
2020-05-16 03:00:00 15 0 Calma 5 Norte 0 -- -- 92
2020-05-16 02:00:00 15.3 3 Noroeste 8 Norte 0 -- -- 90
2020-05-16 01:00:00 15.3 3 Norte 10 Noroeste 0 -- -- 88
2020-05-16 00:00:00 15 0 Calma 5 Oeste 0 -- -- 87
2020-05-15 23:00:00 15.6 3 Oeste 5 Noroeste 0 -- -- 84
2020-05-15 22:00:00 15.9 2 Oeste 5 Oeste 0 -- -- 80
2020-05-15 21:00:00 17 3 Oeste 12 Sudoeste 0 -- -- 76
2020-05-15 20:00:00 17.9 4 Sudoeste 9 Sudoeste 0 -- -- 72
2020-05-15 19:00:00 18.1 3 Oeste 10 Sudoeste 0 -- -- 73
2020-05-15 18:00:00 17.7 5 Sudoeste 13 Oeste 0 -- -- 73
2020-05-15 17:00:00 18.1 6 Sudoeste 21 Sur 0 -- -- 71
2020-05-15 16:00:00 17.8 9 Sudoeste 23 Sudoeste 0 -- -- 74
2020-05-15 15:00:00 18.4 6 Sudoeste 14 Sudoeste 0.6 -- -- 72
2020-05-15 14:00:00 18 5 Norte 12 Noroeste 0 -- -- 70
2020-05-15 13:00:00 17.1 8 Noroeste 14 Noroeste 0 -- -- 78
2020-05-15 12:00:00 16.9 5 Oeste 26 Sudeste 0 -- -- 78
2020-05-15 11:00:00 17.3 19 Sudeste 26 Sudeste 0 -- -- 69
2020-05-15 10:00:00 16.5 10 Sudeste 24 Sudeste 0 -- -- 73
2020-05-15 09:00:00 15.1 7 Este 15 Sudeste 0 -- -- 79
2020-05-15 08:00:00 14.5 5 Este 26 Sudeste 0 -- -- 81
2020-05-15 07:00:00 15.1 17 Sudeste 27 Sudeste 0 -- -- 75
2020-05-15 06:00:00 14.4 13 Sudeste 26 Sudeste 0 -- -- 79
2020-05-15 05:00:00 14 9 Sudeste 20 Sur 0 -- -- 81
2020-05-15 04:00:00 14.2 11 Sur 24 Sudeste 0 -- -- 80
2020-05-15 03:00:00 14.4 11 Sur 29 Sudeste 0 -- -- 77
2020-05-15 02:00:00 14.5 12 Sur 28 Sur 0 -- -- 77
2020-05-15 01:00:00 14.4 11 Sur 27 Sur 0 -- -- 81
2020-05-15 00:00:00 14.5 13 Sur 30 Sur 0 -- -- 85
2020-05-14 23:00:00 14.9 15 Sur 34 Sur 0 -- -- 86
2020-05-14 22:00:00 14.8 14 Sur 25 Sur 0 -- -- 87
2020-05-14 21:00:00 15.4 12 Sur 31 Sur 0.2 -- -- 87
2020-05-14 20:00:00 15.9 15 Sur 34 Sudoeste 0.6 -- -- 86
2020-05-14 19:00:00 15.7 12 Sur 24 Sur 0.2 -- -- 88
2020-05-14 18:00:00 14.1 8 Sudoeste 39 Sudoeste 5.6 -- -- 90
2020-05-14 17:00:00 15.1 10 Sudoeste 29 Sur 4 -- -- 86
2020-05-14 16:00:00 16.5 19 Sudoeste 49 Sur 1.4 -- -- 72
2020-05-14 15:00:00 18.4 22 Sudoeste 49 Sudoeste 0 -- -- 66
2020-05-14 14:00:00 15.7 21 Sur 43 Sur 1.2 -- -- 89
2020-05-14 13:00:00 13.9 25 Sudoeste 80 Sudoeste 6.2 -- -- 82
2020-05-14 12:00:00 13.2 7 Sur 22 Sur 1.6 -- -- 93
2020-05-14 11:00:00 13.4 16 Sur 40 Sur 3.8 -- -- 90
2020-05-14 10:00:00 13.4 10 Sur 34 Sur 0.2 -- -- 93
2020-05-14 09:00:00 12.7 13 Sur 30 Sudeste 4.2 -- -- 94
2020-05-14 08:00:00 12.7 16 Sur 31 Sudeste 0.4 -- -- 92
2020-05-14 07:00:00 11.7 13 Sur 29 Sudoeste 1 -- -- 94
2020-05-14 06:00:00 12 10 Sur 28 Sur 1.6 -- -- 91
2020-05-14 05:00:00 11.5 6 Sudoeste 20 Sudoeste 0 -- -- 90
2020-05-14 04:00:00 12.2 12 Sur 23 Sudoeste 0 -- -- 91
2020-05-14 03:00:00 13 22 Sur 36 Sur 0 -- -- 92
2020-05-14 02:00:00 12.3 3 Nordeste 9 Nordeste 0 -- -- 95
2020-05-14 01:00:00 12.5 4 Sudoeste 19 Sur 1.2 -- -- 94
2020-05-14 00:00:00 12.9 4 Sudoeste 9 Sur 0.4 -- -- 95
2020-05-13 23:00:00 13.1 4 Sudoeste 7 Sur 0 -- -- 95
2020-05-13 22:00:00 13.1 4 Sur 23 Sur 1.4 -- -- 94
2020-05-13 21:00:00 13.7 4 Sudoeste 19 Sudeste 0.8 -- -- 93
2020-05-13 20:00:00 13.9 8 Sudeste 14 Sudeste 1.6 -- -- 94
2020-05-13 19:00:00 13.6 4 Sudoeste 22 Sur 3.2 -- -- 93
2020-05-13 18:00:00 15.2 15 Sudoeste 37 Sudoeste 0.6 -- -- 79
2020-05-13 17:00:00 20.8 17 Sur 39 Sudoeste 0 -- -- 54
2020-05-13 16:00:00 21.6 17 Sudoeste 41 Sur 0 -- -- 49
2020-05-13 15:00:00 21.7 17 Sur 36 Sur 0 -- -- 53
2020-05-13 14:00:00 21.2 19 Sur 40 Sur 0 -- -- 53
2020-05-13 13:00:00 20.6 17 Sur 35 Sur 0 -- -- 60
2020-05-13 12:00:00 19.7 16 Sur 34 Sur 0 -- -- 58
2020-05-13 11:00:00 18.1 17 Sur 32 Sur 0 -- -- 69
2020-05-13 10:00:00 16.3 11 Sur 22 Sur 0 -- -- 77
2020-05-13 09:00:00 14.5 2 Sur 12 Sudeste 0 -- -- 85
2020-05-13 08:00:00 13.5 3 Sudeste 11 Este 0 -- -- 91
2020-05-13 07:00:00 12.5 0 Calma 8 Nordeste 0 -- -- 93
2020-05-13 06:00:00 12.5 0 Calma 5 Este 0 -- -- 92
2020-05-13 05:00:00 12.9 2 Norte 6 Nordeste 0 -- -- 90
2020-05-13 04:00:00 13.4 3 Norte 8 Nordeste 0 -- -- 89
2020-05-13 03:00:00 12.7 0 Calma 6 Sudoeste 0 -- -- 88
2020-05-13 02:00:00 13.5 4 Sudoeste 8 Sudoeste 0 -- -- 85
2020-05-13 01:00:00 13.9 0 Calma 8 Sudoeste 0 -- -- 85
2020-05-13 00:00:00 13.2 0 Calma 5 Sudoeste 0 -- -- 87
2020-05-12 23:00:00 12.8 3 Sudoeste 5 Oeste 0 -- -- 87
2020-05-12 22:00:00 13.9 0 Calma 12 Sudoeste 0 -- -- 81
2020-05-12 21:00:00 15.9 6 Sudoeste 22 Sudoeste 0 -- -- 73
2020-05-12 20:00:00 17.2 12 Sudoeste 28 Sudoeste 0 -- -- 71
2020-05-12 19:00:00 18.4 11 Sudoeste 26 Sudoeste 0 -- -- 65
2020-05-12 18:00:00 18.7 12 Sudoeste 30 Sudoeste 0 -- -- 60
2020-05-12 17:00:00 19.4 13 Sudoeste 33 Sur 0 -- -- 59
2020-05-12 16:00:00 19 15 Sudoeste 40 Sur 0 -- -- 62
2020-05-12 15:00:00 17.9 18 Sur 33 Sur 0 -- -- 79
2020-05-12 14:00:00 14.8 6 Sur 23 Sur 3.4 -- -- 90
2020-05-12 13:00:00 15.3 8 Sudoeste 19 Sur 1.6 -- -- 88
2020-05-12 12:00:00 15.8 3 Sur 10 Norte 0.8 -- -- 80
2020-05-12 11:00:00 15.1 2 Nordeste 25 Sur 0 -- -- 74
2020-05-12 10:00:00 13.6 16 Sur 33 Sur 0.6 -- -- 87
2020-05-12 09:00:00 14.8 13 Sudoeste 24 Sur 0 -- -- 84
2020-05-12 08:00:00 15.9 19 Sudeste 25 Sudeste 0 -- -- 87
2020-05-12 07:00:00 14.9 6 Sudeste 12 Sudeste 0 -- -- 93
2020-05-12 06:00:00 14.6 3 Sudoeste 9 Sudeste 0 -- -- 93
2020-05-12 05:00:00 14.3 0 Calma 5 Sudeste 0 -- -- 94
2020-05-12 04:00:00 14.3 0 Calma 7 Sudoeste 0 -- -- 94
2020-05-12 03:00:00 14.4 3 Sudoeste 8 Nordeste 0 -- -- 92
2020-05-12 02:00:00 14.7 0 Calma 5 Norte 0 -- -- 92
2020-05-12 01:00:00 15.1 0 Calma 8 Sudeste 0 -- -- 90
2020-05-12 00:00:00 16 5 Oeste 8 Oeste 0 -- -- 83
2020-05-11 23:00:00 15.5 3 Oeste 8 Oeste 0 -- -- 86
2020-05-11 22:00:00 16.3 3 Oeste 9 Sudoeste 0 -- -- 83
2020-05-11 21:00:00 17.8 4 Oeste 11 Sudoeste 0 -- -- 75
2020-05-11 20:00:00 19 5 Sudoeste 16 Sudoeste 0 -- -- 69
2020-05-11 19:00:00 20 8 Sudoeste 25 Sudoeste 0 -- -- 64
2020-05-11 18:00:00 20.6 12 Sudoeste 31 Sudoeste 0 -- -- 61
2020-05-11 17:00:00 20.8 14 Sudoeste 30 Sudoeste 0 -- -- 62
2020-05-11 16:00:00 20.1 12 Sudoeste 33 Sudoeste 0 -- -- 67
2020-05-11 15:00:00 19.6 9 Sudoeste 27 Sudoeste 0 -- -- 72
2020-05-11 14:00:00 17.4 9 Sudoeste 32 Sur 2 -- -- 88
2020-05-11 13:00:00 19.4 15 Sudoeste 37 Sudoeste 0.2 -- -- 85
2020-05-11 12:00:00 20.5 17 Sudoeste 40 Sur 0 -- -- 69
2020-05-11 11:00:00 20.4 17 Sudoeste 39 Sudoeste 0 -- -- 70
2020-05-11 10:00:00 19.3 15 Sur 30 Sur 0 -- -- 78
2020-05-11 09:00:00 16.4 14 Sur 22 Sur 0 -- -- 89
2020-05-11 08:00:00 14.9 6 Sur 17 Sudoeste 0 -- -- 93
2020-05-11 07:00:00 14.9 8 Sur 15 Sur 0 -- -- 92
2020-05-11 06:00:00 14.9 5 Sur 10 Sur 0 -- -- 92
2020-05-11 05:00:00 15.1 4 Oeste 9 Oeste 0 -- -- 89
2020-05-11 04:00:00 15 6 Sudoeste 17 Sudoeste 0 -- -- 89
2020-05-11 03:00:00 13.8 4 Sudoeste 8 Sur 0 -- -- 91
2020-05-11 02:00:00 14 4 Sudoeste 8 Sudoeste 0 -- -- 91
2020-05-11 01:00:00 14.3 4 Sudoeste 10 Sudoeste 0 -- -- 88
2020-05-11 00:00:00 13.9 3 Sur 9 Sur 0 -- -- 88
2020-05-10 23:00:00 14.9 2 Sur 9 Sur 0 -- -- 82
2020-05-10 22:00:00 16.2 5 Sur 19 Oeste 0 -- -- 77
2020-05-10 21:00:00 17.2 9 Sudoeste 27 Sudoeste 0 -- -- 71
2020-05-10 20:00:00 18.3 12 Sudoeste 29 Sudoeste 0 -- -- 67
2020-05-10 19:00:00 19 13 Sudoeste 31 Sudoeste 0 -- -- 66
2020-05-10 18:00:00 19.1 14 Sudoeste 33 Sudoeste 0 -- -- 66
2020-05-10 17:00:00 19.9 17 Sudoeste 39 Oeste 0 -- -- 63
2020-05-10 16:00:00 20.6 18 Sudoeste 43 Sudoeste 0 -- -- 66
2020-05-10 15:00:00 20.5 16 Sudoeste 44 Sudoeste 0 -- -- 65
2020-05-10 14:00:00 19.5 15 Sudoeste 35 Sur 0 -- -- 74
2020-05-10 13:00:00 18.3 15 Sudoeste 34 Oeste 0.2 -- -- 78
2020-05-10 12:00:00 17.3 9 Sur 22 Sudoeste 0.2 -- -- 84
2020-05-10 11:00:00 17.8 8 Sudoeste 18 Oeste 0.2 -- -- 81
2020-05-10 10:00:00 15.4 6 Sur 14 Sudoeste 0 -- -- 87
2020-05-10 09:00:00 14.2 5 Sudoeste 11 Sudoeste 1 -- -- 96
2020-05-10 08:00:00 13.5 0 Calma 4 Oeste 0 -- -- 97
2020-05-10 07:00:00 12.9 3 Oeste 5 Sudoeste 0.2 -- -- 96
2020-05-10 06:00:00 13 0 Calma 6 Sur 0 -- -- 95
2020-05-10 05:00:00 13.4 3 Sur 8 Sur 0 -- -- 95
2020-05-10 04:00:00 13.8 3 Sudoeste 6 Sudoeste 0.4 -- -- 95
2020-05-10 03:00:00 14.2 2 Oeste 12 Sur 0.2 -- -- 94
2020-05-10 02:00:00 14.4 8 Sudoeste 15 Sur 0.6 -- -- 91
2020-05-10 01:00:00 15.1 8 Sudoeste 14 Sudoeste 0.2 -- -- 94
2020-05-10 00:00:00 14.8 4 Sudoeste 10 Sur 0 -- -- 94
2020-05-09 23:00:00 15.4 4 Sudoeste 10 Sur 0 -- -- 92
2020-05-09 22:00:00 15.8 3 Sudoeste 15 Sudoeste 0 -- -- 94
2020-05-09 21:00:00 16 6 Sudoeste 19 Sur 1.4 -- -- 93
2020-05-09 20:00:00 18.5 10 Sudoeste 29 Sudoeste 0.6 -- -- 73
2020-05-09 19:00:00 20.5 12 Sudoeste 32 Oeste 0 -- -- 51
2020-05-09 18:00:00 21.4 13 Sudoeste 29 Sudoeste 0 -- -- 49
2020-05-09 17:00:00 22.5 13 Sudoeste 32 Sur 0 -- -- 44
2020-05-09 16:00:00 22 12 Sudoeste 29 Sur 0 -- -- 47
2020-05-09 15:00:00 22.4 13 Sudoeste 26 Sudoeste 0 -- -- 43
2020-05-09 14:00:00 21.1 11 Sudoeste 27 Sudoeste 0 -- -- 50
2020-05-09 13:00:00 20.7 9 Sudoeste 24 Sur 0 -- -- 53
2020-05-09 12:00:00 20.1 10 Sudoeste 24 Sudoeste 0 -- -- 54
2020-05-09 11:00:00 18.6 9 Sudoeste 19 Sudoeste 0 -- -- 64
2020-05-09 10:00:00 18.4 6 Sur 15 Sur 0 -- -- 65
2020-05-09 09:00:00 16.4 4 Sur 11 Sur 0 -- -- 81
2020-05-09 08:00:00 15 3 Sudoeste 10 Sudoeste 0 -- -- 88
2020-05-09 07:00:00 14 2 Sudoeste 5 Sudoeste 0 -- -- 91
2020-05-09 06:00:00 15.2 0 Calma 6 Sudoeste 0 -- -- 88
2020-05-09 05:00:00 15.7 2 Sudoeste 9 Sur 0 -- -- 89
2020-05-09 04:00:00 15.4 3 Sudoeste 8 Sudoeste 0 -- -- 89
2020-05-09 03:00:00 16.1 4 Sudoeste 9 Sur 0 -- -- 88
2020-05-09 02:00:00 16.4 3 Sudoeste 13 Sudoeste 0 -- -- 87
2020-05-09 01:00:00 16.4 5 Sudoeste 9 Oeste 0 -- -- 85
2020-05-09 00:00:00 17.4 4 Sudoeste 12 Sudoeste 0 -- -- 78
2020-05-08 23:00:00 17.7 6 Sudoeste 18 Sudoeste 0 -- -- 75
2020-05-08 22:00:00 18.1 9 Oeste 24 Oeste 0 -- -- 69
2020-05-08 21:00:00 18.9 10 Sudoeste 23 Oeste 0 -- -- 62
2020-05-08 20:00:00 20.3 9 Sudoeste 26 Oeste 0 -- -- 59
2020-05-08 19:00:00 22.7 14 Sudoeste 29 Oeste 0 -- -- 52
2020-05-08 18:00:00 23.7 14 Sudoeste 32 Sudoeste 0 -- -- 52
2020-05-08 17:00:00 25.6 14 Sudoeste 32 Sur 0 -- -- 46
2020-05-08 16:00:00 26.4 15 Sudoeste 34 Sur 0 -- -- 43
2020-05-08 15:00:00 26.7 23 Sur 41 Sur 0 -- -- 38
2020-05-08 14:00:00 26.6 23 Sur 41 Sur 0 -- -- 35
2020-05-08 13:00:00 26.3 24 Sur 41 Sur 0 -- -- 38
2020-05-08 12:00:00 25.9 18 Sur 34 Sur 0 -- -- 40
2020-05-08 11:00:00 23.8 4 Sudeste 11 Noroeste 0 -- -- 40
2020-05-08 10:00:00 21.3 4 Noroeste 17 Oeste 0 -- -- 48
2020-05-08 09:00:00 19.3 3 Oeste 10 Oeste 0 -- -- 51
2020-05-08 08:00:00 18 3 Sudeste 14 Este 0 -- -- 56
2020-05-08 07:00:00 19 4 Este 17 Este 0 -- -- 54
2020-05-08 06:00:00 20.7 7 Este 28 Sudeste 0 -- -- 48
2020-05-08 05:00:00 20.6 8 Este 46 Sudeste 0 -- -- 47
2020-05-08 04:00:00 21.6 26 Sudeste 51 Sudeste 0 -- -- 42
2020-05-08 03:00:00 21.5 30 Sudeste 55 Sudeste 0 -- -- 45
2020-05-08 02:00:00 21.2 41 Sudeste 60 Sudeste 0 -- -- 47
2020-05-08 01:00:00 21.5 35 Sudeste 59 Sudeste 0 -- -- 45
2020-05-08 00:00:00 21.8 31 Sudeste 56 Sudeste 0 -- -- 43
2020-05-07 23:00:00 22.4 37 Sudeste 51 Sudeste 0 -- -- 39
2020-05-07 22:00:00 22.9 27 Sudeste 42 Sudeste 0 -- -- 33
2020-05-07 21:00:00 23.1 12 Sudeste 48 Sudeste 0 -- -- 34
2020-05-07 20:00:00 24.2 16 Sudeste 36 Sudeste 0 -- -- 37
2020-05-07 19:00:00 25.7 18 Sudeste 42 Sudeste 0 -- -- 35
2020-05-07 18:00:00 25.6 30 Sudeste 43 Sudeste 0 -- -- 37
2020-05-07 17:00:00 25.3 14 Este 43 Este 0 -- -- 43
2020-05-07 16:00:00 25.1 25 Sudeste 41 Sudeste 0 -- -- 43
2020-05-07 15:00:00 24.8 19 Sudeste 48 Sudeste 0 -- -- 45
2020-05-07 14:00:00 24.4 34 Sudeste 54 Sudeste 0 -- -- 43
2020-05-07 13:00:00 24.9 39 Sudeste 58 Sudeste 0 -- -- 41
2020-05-07 12:00:00 23.5 22 Sudeste 40 Este 0 -- -- 48
2020-05-07 11:00:00 22.8 25 Sudeste 42 Sudeste 0 -- -- 51
2020-05-07 10:00:00 22.5 10 Este 31 Sudeste 0 -- -- 49
2020-05-07 09:00:00 21.8 10 Este 33 Este 0 -- -- 51
2020-05-07 08:00:00 21.1 11 Este 26 Sudeste 0 -- -- 57
2020-05-07 07:00:00 20.1 3 Sur 14 Sudeste 0 -- -- 48
2020-05-07 06:00:00 21.8 7 Sudeste 28 Sudeste 0 -- -- 48
2020-05-07 05:00:00 22 17 Sudeste 27 Sudeste 0 -- -- 45
2020-05-07 04:00:00 19.3 4 Este 9 Este 0 -- -- 53
2020-05-07 03:00:00 19.5 2 Nordeste 7 Norte 0 -- -- 49
2020-05-07 02:00:00 19.5 2 Nordeste 6 Este 0 -- -- 55
2020-05-07 01:00:00 20.1 0 Calma 5 Norte 0 -- -- 51
2020-05-07 00:00:00 21.2 0 Calma 4 Norte 0 -- -- 50
2020-05-06 23:00:00 22.2 0 Calma 9 Este 0 -- -- 45
2020-05-06 22:00:00 24 2 Norte 13 Norte 0 -- -- 33
2020-05-06 21:00:00 26.4 4 Nordeste 17 Norte 0 -- -- 32
2020-05-06 20:00:00 28.1 5 Norte 19 Norte 0 -- -- 26
2020-05-06 19:00:00 29 10 Norte 22 Norte 0 -- -- 22
2020-05-06 18:00:00 30.5 8 Norte 19 Nordeste 0 -- -- 21
2020-05-06 17:00:00 30.6 6 Norte 26 Noroeste 0 -- -- 21
2020-05-06 16:00:00 29.9 10 Norte 25 Nordeste 0 -- -- 21
2020-05-06 15:00:00 28.7 10 Norte 31 Norte 0 -- -- 25
2020-05-06 14:00:00 27.4 15 Norte 31 Norte 0 -- -- 28
2020-05-06 13:00:00 26.8 8 Norte 31 Nordeste 0 -- -- 34
2020-05-06 12:00:00 24.9 12 Norte 29 Norte 0 -- -- 35
2020-05-06 11:00:00 22.4 10 Norte 24 Nordeste 0 -- -- 53
2020-05-06 10:00:00 17.9 4 Sudeste 8 Sudeste 0 -- -- 79
2020-05-06 09:00:00 14.4 3 Este 8 Sudeste 0 -- -- 92
2020-05-06 08:00:00 12.9 0 Calma 4 Nordeste 0 -- -- 95
2020-05-06 07:00:00 12.8 0 Calma 5 Sudeste 0 -- -- 94
2020-05-06 06:00:00 13 0 Calma 4 Sudeste 0 -- -- 94
2020-05-06 05:00:00 13.7 0 Calma 3 Este 0 -- -- 94
2020-05-06 04:00:00 13.9 0 Calma 3 Este 0 -- -- 93
2020-05-06 03:00:00 14.3 0 Calma 4 Norte 0 -- -- 91
2020-05-06 02:00:00 14.7 0 Calma 4 Nordeste 0 -- -- 91
2020-05-06 01:00:00 15.1 0 Calma 3 Este 0 -- -- 89
2020-05-06 00:00:00 15.5 0 Calma 3 Sur 0 -- -- 83
2020-05-05 23:00:00 17 0 Calma 19 Noroeste 0 -- -- 70
2020-05-05 22:00:00 18.4 9 Noroeste 18 Noroeste 0 -- -- 60
2020-05-05 21:00:00 20.9 8 Noroeste 19 Norte 0 -- -- 48
2020-05-05 20:00:00 23.2 8 Noroeste 20 Oeste 0 -- -- 40
2020-05-05 19:00:00 26.2 8 Noroeste 22 Norte 0 -- -- 36
2020-05-05 18:00:00 26.8 9 Norte 19 Norte 0 -- -- 32
2020-05-05 17:00:00 27.1 8 Norte 18 Norte 0 -- -- 30
2020-05-05 16:00:00 26.7 7 Norte 22 Norte 0 -- -- 31
2020-05-05 15:00:00 25.9 5 Nordeste 21 Noroeste 0 -- -- 32
2020-05-05 14:00:00 24.1 10 Norte 22 Noroeste 0 -- -- 54
2020-05-05 13:00:00 22.6 6 Noroeste 14 Noroeste 0 -- -- 61
2020-05-05 12:00:00 20.8 6 Noroeste 14 Norte 0 -- -- 72
2020-05-05 11:00:00 18.4 6 Noroeste 15 Nordeste 0 -- -- 80
2020-05-05 10:00:00 17.3 4 Norte 15 Norte 0 -- -- 87
2020-05-05 09:00:00 15.6 2 Sudeste 6 Este 0 -- -- 97
2020-05-05 08:00:00 14.3 0 Calma 4 Sur 0 -- -- 97
2020-05-05 07:00:00 14.1 0 Calma 5 Sur 0 -- -- 97
2020-05-05 06:00:00 14.4 0 Calma 3 Nordeste 0 -- -- 96
2020-05-05 05:00:00 14.9 0 Calma 3 Nordeste 0 -- -- 95
2020-05-05 04:00:00 15.6 0 Calma 4 Este 0 -- -- 94
2020-05-05 03:00:00 16.2 0 Calma 7 Sur 0 -- -- 92
2020-05-05 02:00:00 16.6 3 Sudoeste 5 Sur 0 -- -- 94
2020-05-05 01:00:00 16.4 3 Sudoeste 7 Sur 0 -- -- 92
2020-05-05 00:00:00 17 3 Oeste 6 Sudoeste 0 -- -- 90
2020-05-04 23:00:00 17.4 3 Sudoeste 9 Oeste 0 -- -- 87
2020-05-04 22:00:00 18.4 4 Sudoeste 10 Sudoeste 0 -- -- 78
2020-05-04 21:00:00 20.1 5 Sudoeste 17 Sudoeste 0 -- -- 65
2020-05-04 20:00:00 21.5 7 Sur 25 Sur 0 -- -- 59
2020-05-04 19:00:00 23.3 12 Sudoeste 29 Sudoeste 0 -- -- 54
2020-05-04 18:00:00 25.4 10 Sur 35 Sudoeste 0 -- -- 47
2020-05-04 17:00:00 26.9 9 Sudoeste 21 Sudoeste 0 -- -- 44
2020-05-04 16:00:00 26 11 Sudoeste 30 Sudoeste 0 -- -- 48
2020-05-04 15:00:00 25.8 14 Oeste 34 Sudoeste 0 -- -- 48
2020-05-04 14:00:00 25.9 14 Sudoeste 39 Oeste 0 -- -- 52
2020-05-04 13:00:00 27.9 19 Sur 45 Sur 0 -- -- 45
2020-05-04 12:00:00 28.7 18 Sur 38 Sur 0 -- -- 31
2020-05-04 11:00:00 28.9 11 Sudoeste 28 Oeste 0 -- -- 30
2020-05-04 10:00:00 28.2 3 Norte 39 Sudeste 0 -- -- 29
2020-05-04 09:00:00 26.3 24 Sudeste 43 Sudeste 0 -- -- 29
2020-05-04 08:00:00 26 27 Sudeste 43 Sudeste 0 -- -- 29
2020-05-04 07:00:00 24.9 14 Sudeste 29 Sudeste 0 -- -- 32
2020-05-04 06:00:00 24 5 Este 13 Este 0 -- -- 33
2020-05-04 05:00:00 25.6 5 Sur 33 Sudeste 0 -- -- 28
2020-05-04 04:00:00 25.3 9 Este 27 Este 0 -- -- 31
2020-05-04 03:00:00 25.3 8 Este 25 Nordeste 0 -- -- 30
2020-05-04 02:00:00 25.5 8 Este 21 Nordeste 0 -- -- 34
2020-05-04 01:00:00 26.1 7 Este 24 Nordeste 0 -- -- 33
2020-05-04 00:00:00 25.9 8 Este 21 Este 0 -- -- 33
2020-05-03 23:00:00 25.4 6 Este 20 Este 0 -- -- 34
2020-05-03 22:00:00 24.3 5 Nordeste 19 Este 0 -- -- 42
2020-05-03 21:00:00 25.7 3 Norte 14 Sudeste 0 -- -- 38
2020-05-03 20:00:00 28.3 0 Calma 12 Nordeste 0 -- -- 38
2020-05-03 19:00:00 30.4 5 Oeste 12 Oeste 0 -- -- 29
2020-05-03 18:00:00 31.4 4 Nordeste 12 Este 0 -- -- 27
2020-05-03 17:00:00 31.7 3 Este 12 Norte 0 -- -- 28
2020-05-03 16:00:00 31.7 3 Este 12 Este 0 -- -- 26
2020-05-03 15:00:00 32 5 Este 14 Sudeste 0 -- -- 28
2020-05-03 14:00:00 30.4 2 Este 17 Sudeste 0 -- -- 30
2020-05-03 13:00:00 30.1 3 Este 24 Sudeste 0 -- -- 30
2020-05-03 12:00:00 29.3 10 Sudeste 24 Sudeste 0 -- -- 29
2020-05-03 11:00:00 27.2 3 Sudeste 6 Sudeste 0 -- -- 34
2020-05-03 10:00:00 23.6 0 Calma 7 Este 0 -- -- 53
2020-05-03 09:00:00 18.6 0 Calma 4 Norte 0 -- -- 72
2020-05-03 08:00:00 17 0 Calma 5 Sudeste 0 -- -- 76
2020-05-03 07:00:00 16.2 2 Sudoeste 6 Sudoeste 0 -- -- 83
2020-05-03 06:00:00 16.1 0 Calma 5 Sudoeste 0 -- -- 92
2020-05-03 05:00:00 16.4 0 Calma 4 Sudoeste 0 -- -- 93
2020-05-03 04:00:00 16.8 0 Calma 4 Sudoeste 0 -- -- 93
2020-05-03 03:00:00 17.3 2 Sudoeste 4 Sudoeste 0 -- -- 93
2020-05-03 02:00:00 18.1 0 Calma 4 Sudoeste 0 -- -- 91
2020-05-03 01:00:00 18.9 0 Calma 3 Sudoeste 0 -- -- 87
2020-05-03 00:00:00 20 0 Calma 4 Noroeste 0 -- -- 77